TimeCDT,TemperatureF,Dew PointF,Humidity,Sea Level PressureIn,VisibilityMPH,Wind Direction,Wind SpeedMPH,Gust SpeedMPH,PrecipitationIn,Events,Conditions,WindDirDegrees,DateUTC
12:15 AM,39.4,34.0,81,30.20,7.0,NNW,8.1,-,N/A,,Overcast,330,2012-10-29 05:15:00
12:35 AM,39.4,34.0,81,30.20,10.0,NNW,8.1,-,N/A,,Overcast,330,2012-10-29 05:35:00
12:55 AM,39.2,33.8,81,30.20,10.0,NNW,11.5,-,N/A,,Overcast,330,2012-10-29 05:55:00
1:15 AM,39.0,33.8,82,30.20,7.0,NNW,10.4,-,N/A,,Overcast,330,2012-10-29 06:15:00
1:35 AM,37.8,33.3,84,30.20,7.0,NNW,8.1,-,N/A,,Scattered Clouds,330,2012-10-29 06:35:00
1:55 AM,37.4,33.1,84,30.20,10.0,NNW,8.1,-,N/A,,Clear,330,2012-10-29 06:55:00
2:15 AM,36.7,32.9,86,30.20,7.0,NW,8.1,-,N/A,,Clear,320,2012-10-29 07:15:00
2:35 AM,36.9,33.1,86,30.20,7.0,NNW,10.4,-,N/A,,Scattered Clouds,330,2012-10-29 07:35:00
2:55 AM,36.7,32.9,86,30.20,7.0,NNW,6.9,-,N/A,,Scattered Clouds,330,2012-10-29 07:55:00
3:15 AM,36.5,32.9,87,30.20,10.0,NNW,9.2,-,N/A,,Clear,340,2012-10-29 08:15:00
3:35 AM,36.1,32.7,87,30.20,10.0,NNW,8.1,-,N/A,,Clear,340,2012-10-29 08:35:00
3:55 AM,36.0,32.4,87,30.20,10.0,NNW,8.1,-,N/A,,Clear,340,2012-10-29 08:55:00
4:15 AM,35.6,32.2,87,30.20,7.0,NNW,8.1,-,N/A,,Clear,340,2012-10-29 09:15:00
4:35 AM,35.6,32.0,87,30.20,10.0,NNW,6.9,-,N/A,,Clear,340,2012-10-29 09:35:00
4:55 AM,35.1,32.0,89,30.20,10.0,NNW,6.9,-,N/A,,Clear,340,2012-10-29 09:55:00
5:15 AM,34.7,31.8,89,30.20,7.0,NNW,8.1,-,N/A,,Clear,340,2012-10-29 10:15:00
5:35 AM,33.8,32.0,93,30.20,10.0,NNW,8.1,-,N/A,,Clear,330,2012-10-29 10:35:00
5:55 AM,32.9,30.9,92,30.21,7.0,NW,6.9,-,N/A,,Clear,320,2012-10-29 10:55:00
6:15 AM,33.8,31.5,91,30.20,7.0,NNW,9.2,-,N/A,,Clear,330,2012-10-29 11:15:00
6:35 AM,32.4,30.7,94,30.21,10.0,NW,6.9,-,N/A,,Clear,320,2012-10-29 11:35:00
6:55 AM,32.0,30.7,95,30.22,10.0,NW,8.1,-,N/A,,Clear,320,2012-10-29 11:55:00
7:15 AM,32.5,31.1,94,30.22,7.0,NNW,6.9,-,N/A,,Clear,330,2012-10-29 12:15:00
7:35 AM,32.9,31.5,94,30.22,5.0,NW,9.2,-,N/A,,Clear,320,2012-10-29 12:35:00
7:55 AM,33.3,31.8,94,30.23,5.0,NNW,11.5,-,N/A,,Clear,330,2012-10-29 12:55:00
8:15 AM,34.3,32.0,91,30.23,5.0,NNW,10.4,-,N/A,,Clear,330,2012-10-29 13:15:00
8:35 AM,35.4,32.2,88,30.23,10.0,NNW,9.2,-,N/A,,Clear,330,2012-10-29 13:35:00
8:55 AM,36.7,33.1,87,30.22,10.0,NW,11.5,-,N/A,,Clear,320,2012-10-29 13:55:00
9:15 AM,38.3,34.0,84,30.23,5.0,NNW,8.1,-,N/A,,Clear,340,2012-10-29 14:15:00
9:35 AM,40.6,35.2,81,30.23,10.0,NNW,9.2,-,N/A,,Clear,340,2012-10-29 14:35:00
9:55 AM,42.3,36.3,79,30.23,7.0,NNW,13.8,17.3,N/A,,Clear,330,2012-10-29 14:55:00
10:15 AM,44.6,37.4,76,30.22,7.0,NNW,12.7,17.3,N/A,,Clear,330,2012-10-29 15:15:00
10:35 AM,45.9,36.7,70,30.22,7.0,North,13.8,19.6,N/A,,Clear,350,2012-10-29 15:35:00
10:55 AM,47.1,36.7,67,30.22,7.0,NNW,11.5,20.7,N/A,,Clear,340,2012-10-29 15:55:00
11:15 AM,48.9,35.2,59,30.22,7.0,North,15.0,24.2,N/A,,Clear,350,2012-10-29 16:15:00
11:35 AM,49.1,34.3,57,30.21,7.0,North,15.0,26.5,N/A,,Clear,10,2012-10-29 16:35:00
11:55 AM,50.0,34.3,55,30.20,7.0,North,15.0,26.5,N/A,,Clear,360,2012-10-29 16:55:00
12:15 PM,51.8,35.6,54,30.19,7.0,NNW,12.7,23.0,N/A,,Scattered Clouds,340,2012-10-29 17:15:00
12:35 PM,51.6,36.0,55,30.18,7.0,North,16.1,24.2,N/A,,Scattered Clouds,350,2012-10-29 17:35:00
12:55 PM,52.2,34.3,51,30.17,7.0,North,17.3,27.6,N/A,,Clear,360,2012-10-29 17:55:00
1:15 PM,52.3,35.1,52,30.16,7.0,North,15.0,28.8,N/A,,Scattered Clouds,350,2012-10-29 18:15:00
1:35 PM,52.5,34.5,50,30.15,7.0,North,15.0,24.2,N/A,,Mostly Cloudy,360,2012-10-29 18:35:00
1:55 PM,52.7,33.4,48,30.14,7.0,NNW,15.0,24.2,N/A,,Mostly Cloudy,340,2012-10-29 18:55:00
2:15 PM,52.9,33.4,48,30.13,7.0,NNW,10.4,25.3,N/A,,Mostly Cloudy,340,2012-10-29 19:15:00
2:35 PM,53.4,34.0,48,30.12,7.0,North,17.3,27.6,N/A,,Scattered Clouds,360,2012-10-29 19:35:00
2:55 PM,52.2,33.6,49,30.12,7.0,NNW,17.3,21.9,N/A,,Mostly Cloudy,340,2012-10-29 19:55:00
3:15 PM,51.4,33.4,50,30.12,7.0,North,10.4,20.7,N/A,,Mostly Cloudy,350,2012-10-29 20:15:00
3:35 PM,53.1,32.5,46,30.12,7.0,North,17.3,24.2,N/A,,Scattered Clouds,350,2012-10-29 20:35:00
3:55 PM,51.3,32.2,48,30.11,7.0,NNW,15.0,23.0,N/A,,Mostly Cloudy,340,2012-10-29 20:55:00
4:15 PM,52.5,32.4,46,30.11,7.0,North,15.0,24.2,N/A,,Scattered Clouds,350,2012-10-29 21:15:00
4:35 PM,52.2,32.0,46,30.10,7.0,NNW,16.1,24.2,N/A,,Scattered Clouds,330,2012-10-29 21:35:00
4:55 PM,52.0,31.6,46,30.10,7.0,North,16.1,24.2,N/A,,Scattered Clouds,350,2012-10-29 21:55:00
5:15 PM,50.9,31.6,48,30.10,7.0,North,16.1,25.3,N/A,,Scattered Clouds,350,2012-10-29 22:15:00
5:35 PM,49.3,30.2,48,30.10,7.0,North,16.1,25.3,N/A,,Scattered Clouds,360,2012-10-29 22:35:00
5:55 PM,47.8,30.7,52,30.09,7.0,North,12.7,24.2,N/A,,Clear,350,2012-10-29 22:55:00
6:15 PM,46.8,31.5,55,30.09,7.0,North,9.2,-,N/A,,Clear,360,2012-10-29 23:15:00
6:35 PM,46.4,31.6,56,30.09,7.0,North,10.4,18.4,N/A,,Clear,350,2012-10-29 23:35:00
6:55 PM,45.9,31.3,57,30.09,7.0,North,11.5,20.7,N/A,,Clear,350,2012-10-29 23:55:00
7:15 PM,45.0,32.0,60,30.08,7.0,North,11.5,-,N/A,,Clear,360,2012-10-30 00:15:00
7:35 PM,44.6,32.0,61,30.08,7.0,North,9.2,19.6,N/A,,Clear,360,2012-10-30 00:35:00
10:35 PM,41.9,29.1,61,30.03,10.0,NNW,15.0,23.0,N/A,,Clear,330,2012-10-30 03:35:00
10:55 PM,41.5,29.1,61,30.02,10.0,NNW,16.1,21.9,N/A,,Clear,330,2012-10-30 03:55:00
11:15 PM,41.2,28.6,61,30.01,10.0,NNW,17.3,24.2,N/A,,Clear,330,2012-10-30 04:15:00
11:35 PM,40.6,29.1,64,30.00,10.0,NNW,15.0,24.2,N/A,,Clear,330,2012-10-30 04:35:00
11:55 PM,39.4,29.7,68,30.00,10.0,NW,16.1,20.7,N/A,,Clear,320,2012-10-30 04:55:00